sensor_id;sensor_type;location;lat;lon;timestamp;pressure;altitude;pressure_sealevel;temperature
74750;BMP280;63269;53.330;-6.288;2023-01-30T00:01:39;102194.84;;;19.97
74750;BMP280;63269;53.330;-6.288;2023-01-30T00:04:05;102189.53;;;19.97
74750;BMP280;63269;53.330;-6.288;2023-01-30T00:06:30;102183.84;;;19.95
74750;BMP280;63269;53.330;-6.288;2023-01-30T00:08:56;102183.84;;;19.95
74750;BMP280;63269;53.330;-6.288;2023-01-30T00:11:22;102175.84;;;19.95
74750;BMP280;63269;53.330;-6.288;2023-01-30T00:13:49;102175.84;;;19.95
74750;BMP280;63269;53.330;-6.288;2023-01-30T00:16:15;102178.88;;;19.93
74750;BMP280;63269;53.330;-6.288;2023-01-30T00:18:41;102178.88;;;19.93
74750;BMP280;63269;53.330;-6.288;2023-01-30T00:21:08;102185.38;;;19.92
74750;BMP280;63269;53.330;-6.288;2023-01-30T00:23:35;102183.88;;;19.91
74750;BMP280;63269;53.330;-6.288;2023-01-30T00:26:01;102183.88;;;19.91
74750;BMP280;63269;53.330;-6.288;2023-01-30T00:28:27;102181.59;;;19.90
74750;BMP280;63269;53.330;-6.288;2023-01-30T00:30:53;102180.81;;;19.89
74750;BMP280;63269;53.330;-6.288;2023-01-30T00:33:20;102187.31;;;19.88
74750;BMP280;63269;53.330;-6.288;2023-01-30T00:35:47;102187.31;;;19.88
74750;BMP280;63269;53.330;-6.288;2023-01-30T00:38:13;102186.19;;;19.86
74750;BMP280;63269;53.330;-6.288;2023-01-30T00:40:39;102187.72;;;19.87
74750;BMP280;63269;53.330;-6.288;2023-01-30T00:43:05;102187.72;;;19.87
74750;BMP280;63269;53.330;-6.288;2023-01-30T00:45:51;102196.06;;;19.85
74750;BMP280;63269;53.330;-6.288;2023-01-30T00:48:37;102188.44;;;19.84
74750;BMP280;63269;53.330;-6.288;2023-01-30T00:51:03;102186.97;;;19.83
74750;BMP280;63269;53.330;-6.288;2023-01-30T00:53:28;102186.97;;;19.83
74750;BMP280;63269;53.330;-6.288;2023-01-30T00:55:54;102186.97;;;19.83
74750;BMP280;63269;53.330;-6.288;2023-01-30T00:58:23;102182.03;;;19.81
74750;BMP280;63269;53.330;-6.288;2023-01-30T01:00:49;102178.59;;;19.81
74750;BMP280;63269;53.330;-6.288;2023-01-30T01:03:15;102178.59;;;19.81
74750;BMP280;63269;53.330;-6.288;2023-01-30T01:05:41;102186.97;;;19.79
74750;BMP280;63269;53.330;-6.288;2023-01-30T01:08:07;102186.97;;;19.79
74750;BMP280;63269;53.330;-6.288;2023-01-30T01:10:33;102188.13;;;19.78
74750;BMP280;63269;53.330;-6.288;2023-01-30T01:12:58;102195.38;;;19.77
74750;BMP280;63269;53.330;-6.288;2023-01-30T01:15:24;102195.38;;;19.77
74750;BMP280;63269;53.330;-6.288;2023-01-30T01:17:53;102190.03;;;19.77
74750;BMP280;63269;53.330;-6.288;2023-01-30T01:20:19;102190.03;;;19.77
74750;BMP280;63269;53.330;-6.288;2023-01-30T01:22:45;102195.75;;;19.76
74750;BMP280;63269;53.330;-6.288;2023-01-30T01:25:14;102195.75;;;19.76
74750;BMP280;63269;53.330;-6.288;2023-01-30T01:27:40;102199.53;;;19.75
74750;BMP280;63269;53.330;-6.288;2023-01-30T01:30:06;102203.38;;;19.74
74750;BMP280;63269;53.330;-6.288;2023-01-30T01:32:32;102203.38;;;19.74
74750;BMP280;63269;53.330;-6.288;2023-01-30T01:34:57;102199.94;;;19.73
74750;BMP280;63269;53.330;-6.288;2023-01-30T01:37:23;102197.66;;;19.72
74750;BMP280;63269;53.330;-6.288;2023-01-30T01:39:48;102200.72;;;19.70
74750;BMP280;63269;53.330;-6.288;2023-01-30T01:42:34;102202.66;;;19.70
74750;BMP280;63269;53.330;-6.288;2023-01-30T01:48:11;102216.31;;;19.68
74750;BMP280;63269;53.330;-6.288;2023-01-30T01:51:01;102216.31;;;19.68
74750;BMP280;63269;53.330;-6.288;2023-01-30T01:53:32;102215.56;;;19.68
74750;BMP280;63269;53.330;-6.288;2023-01-30T01:55:58;102215.19;;;19.66
74750;BMP280;63269;53.330;-6.288;2023-01-30T01:59:13;102214.44;;;19.65
74750;BMP280;63269;53.330;-6.288;2023-01-30T02:01:12;102200.38;;;19.65
74750;BMP280;63269;53.330;-6.288;2023-01-30T02:03:43;102209.50;;;19.64
74750;BMP280;63269;53.330;-6.288;2023-01-30T02:06:10;102216.72;;;19.63
74750;BMP280;63269;53.330;-6.288;2023-01-30T02:08:43;102216.72;;;19.63
74750;BMP280;63269;53.330;-6.288;2023-01-30T02:11:25;102225.84;;;19.62
74750;BMP280;63269;53.330;-6.288;2023-01-30T02:13:53;102225.84;;;19.62
74750;BMP280;63269;53.330;-6.288;2023-01-30T02:16:19;102234.97;;;19.61
74750;BMP280;63269;53.330;-6.288;2023-01-30T02:18:46;102234.97;;;19.61
74750;BMP280;63269;53.330;-6.288;2023-01-30T02:29:04;102230.44;;;19.58
74750;BMP280;63269;53.330;-6.288;2023-01-30T02:37:03;102227.81;;;19.54
74750;BMP280;63269;53.330;-6.288;2023-01-30T02:40:37;102234.25;;;19.50
74750;BMP280;63269;53.330;-6.288;2023-01-30T02:42:37;102235.78;;;19.51
74750;BMP280;63269;53.330;-6.288;2023-01-30T02:47:48;102231.59;;;19.50
74750;BMP280;63269;53.330;-6.288;2023-01-30T02:50:20;102231.59;;;19.50
74750;BMP280;63269;53.330;-6.288;2023-01-30T02:52:47;102236.16;;;19.49
74750;BMP280;63269;53.330;-6.288;2023-01-30T02:55:24;102247.56;;;19.50
74750;BMP280;63269;53.330;-6.288;2023-01-30T02:57:50;102264.69;;;19.49
74750;BMP280;63269;53.330;-6.288;2023-01-30T03:00:23;102250.22;;;19.50
74750;BMP280;63269;53.330;-6.288;2023-01-30T03:03:10;102250.22;;;19.50
74750;BMP280;63269;53.330;-6.288;2023-01-30T03:05:48;102249.50;;;19.46
74750;BMP280;63269;53.330;-6.288;2023-01-30T03:11:07;102244.94;;;19.46
74750;BMP280;63269;53.330;-6.288;2023-01-30T03:18:49;102254.44;;;19.44
74750;BMP280;63269;53.330;-6.288;2023-01-30T03:21:14;102254.84;;;19.42
74750;BMP280;63269;53.330;-6.288;2023-01-30T03:23:40;102258.22;;;19.43
74750;BMP280;63269;53.330;-6.288;2023-01-30T03:26:12;102266.63;;;19.41
74750;BMP280;63269;53.330;-6.288;2023-01-30T03:28:38;102274.19;;;19.43
74750;BMP280;63269;53.330;-6.288;2023-01-30T03:31:04;102271.94;;;19.41
74750;BMP280;63269;53.330;-6.288;2023-01-30T03:33:29;102281.06;;;19.40
74750;BMP280;63269;53.330;-6.288;2023-01-30T03:35:56;102276.50;;;19.41
74750;BMP280;63269;53.330;-6.288;2023-01-30T03:38:21;102279.53;;;19.39
74750;BMP280;63269;53.330;-6.288;2023-01-30T03:40:47;102278.75;;;19.38
74750;BMP280;63269;53.330;-6.288;2023-01-30T03:43:12;102278.75;;;19.38
74750;BMP280;63269;53.330;-6.288;2023-01-30T03:45:38;102273.44;;;19.38
74750;BMP280;63269;53.330;-6.288;2023-01-30T03:48:03;102278.41;;;19.40
74750;BMP280;63269;53.330;-6.288;2023-01-30T03:50:29;102278.41;;;19.40
74750;BMP280;63269;53.330;-6.288;2023-01-30T03:52:54;102282.56;;;19.41
74750;BMP280;63269;53.330;-6.288;2023-01-30T03:55:20;102282.56;;;19.45
74750;BMP280;63269;53.330;-6.288;2023-01-30T03:57:45;102281.78;;;19.48
74750;BMP280;63269;53.330;-6.288;2023-01-30T04:00:11;102287.50;;;19.57
74750;BMP280;63269;53.330;-6.288;2023-01-30T04:02:36;102303.09;;;19.59
74750;BMP280;63269;53.330;-6.288;2023-01-30T04:05:03;102304.97;;;19.62
74750;BMP280;63269;53.330;-6.288;2023-01-30T04:07:29;102314.84;;;19.65
74750;BMP280;63269;53.330;-6.288;2023-01-30T04:09:54;102314.84;;;19.65
74750;BMP280;63269;53.330;-6.288;2023-01-30T04:12:20;102314.81;;;19.68
74750;BMP280;63269;53.330;-6.288;2023-01-30T04:14:46;102314.06;;;19.71
74750;BMP280;63269;53.330;-6.288;2023-01-30T04:17:11;102314.06;;;19.71
74750;BMP280;63269;53.330;-6.288;2023-01-30T04:19:36;102308.38;;;19.73
74750;BMP280;63269;53.330;-6.288;2023-01-30T04:22:02;102316.31;;;19.76
74750;BMP280;63269;53.330;-6.288;2023-01-30T04:24:27;102318.59;;;19.78
74750;BMP280;63269;53.330;-6.288;2023-01-30T04:26:53;102314.78;;;19.79
74750;BMP280;63269;53.330;-6.288;2023-01-30T04:29:18;102308.69;;;19.82
74750;BMP280;63269;53.330;-6.288;2023-01-30T04:31:43;102298.41;;;19.84
74750;BMP280;63269;53.330;-6.288;2023-01-30T04:34:09;102294.59;;;19.85
74750;BMP280;63269;53.330;-6.288;2023-01-30T04:36:34;102293.06;;;19.88
74750;BMP280;63269;53.330;-6.288;2023-01-30T04:39:01;102295.34;;;19.89
74750;BMP280;63269;53.330;-6.288;2023-01-30T04:41:27;102298.38;;;19.95
74750;BMP280;63269;53.330;-6.288;2023-01-30T04:43:52;102288.84;;;19.97
74750;BMP280;63269;53.330;-6.288;2023-01-30T04:46:17;102293.03;;;19.98
74750;BMP280;63269;53.330;-6.288;2023-01-30T04:48:43;102286.56;;;20.00
74750;BMP280;63269;53.330;-6.288;2023-01-30T04:51:08;102286.56;;;20.00
74750;BMP280;63269;53.330;-6.288;2023-01-30T04:53:37;102303.28;;;20.04
74750;BMP280;63269;53.330;-6.288;2023-01-30T04:56:02;102303.28;;;20.04
74750;BMP280;63269;53.330;-6.288;2023-01-30T04:58:28;102305.19;;;20.03
74750;BMP280;63269;53.330;-6.288;2023-01-30T05:00:53;102298.72;;;20.04
74750;BMP280;63269;53.330;-6.288;2023-01-30T05:03:19;102299.06;;;20.06
74750;BMP280;63269;53.330;-6.288;2023-01-30T05:05:47;102297.16;;;20.10
74750;BMP280;63269;53.330;-6.288;2023-01-30T05:08:14;102297.16;;;20.10
74750;BMP280;63269;53.330;-6.288;2023-01-30T05:10:40;102296.41;;;20.10
74750;BMP280;63269;53.330;-6.288;2023-01-30T05:13:05;102311.63;;;20.09
74750;BMP280;63269;53.330;-6.288;2023-01-30T05:15:31;102330.66;;;20.08
74750;BMP280;63269;53.330;-6.288;2023-01-30T05:17:57;102326.91;;;20.05
74750;BMP280;63269;53.330;-6.288;2023-01-30T05:20:22;102326.91;;;20.05
74750;BMP280;63269;53.330;-6.288;2023-01-30T05:22:48;102320.78;;;20.05
74750;BMP280;63269;53.330;-6.288;2023-01-30T05:25:13;102329.53;;;20.09
74750;BMP280;63269;53.330;-6.288;2023-01-30T05:27:39;102329.53;;;20.09
74750;BMP280;63269;53.330;-6.288;2023-01-30T05:30:04;102335.59;;;20.09
74750;BMP280;63269;53.330;-6.288;2023-01-30T05:32:30;102330.66;;;20.11
74750;BMP280;63269;53.330;-6.288;2023-01-30T05:34:56;102328.34;;;20.13
74750;BMP280;63269;53.330;-6.288;2023-01-30T05:37:21;102325.28;;;20.15
74750;BMP280;63269;53.330;-6.288;2023-01-30T05:39:46;102319.97;;;20.18
74750;BMP280;63269;53.330;-6.288;2023-01-30T05:42:13;102319.97;;;20.18
74750;BMP280;63269;53.330;-6.288;2023-01-30T05:44:39;102306.66;;;20.18
74750;BMP280;63269;53.330;-6.288;2023-01-30T05:47:06;102316.91;;;20.20
74750;BMP280;63269;53.330;-6.288;2023-01-30T05:49:32;102328.72;;;20.23
74750;BMP280;63269;53.330;-6.288;2023-01-30T05:51:57;102322.22;;;20.24
74750;BMP280;63269;53.330;-6.288;2023-01-30T05:54:23;102322.22;;;20.24
74750;BMP280;63269;53.330;-6.288;2023-01-30T05:56:49;102336.66;;;20.26
74750;BMP280;63269;53.330;-6.288;2023-01-30T05:59:14;102344.28;;;20.28
74750;BMP280;63269;53.330;-6.288;2023-01-30T06:01:40;102344.28;;;20.28
74750;BMP280;63269;53.330;-6.288;2023-01-30T06:04:05;102346.56;;;20.29
74750;BMP280;63269;53.330;-6.288;2023-01-30T06:06:31;102340.06;;;20.30
74750;BMP280;63269;53.330;-6.288;2023-01-30T06:08:56;102340.06;;;20.30
74750;BMP280;63269;53.330;-6.288;2023-01-30T06:11:22;102341.59;;;20.31
74750;BMP280;63269;53.330;-6.288;2023-01-30T06:13:48;102343.09;;;20.32
74750;BMP280;63269;53.330;-6.288;2023-01-30T06:16:15;102345.00;;;20.35
74750;BMP280;63269;53.330;-6.288;2023-01-30T06:18:40;102345.00;;;20.35
74750;BMP280;63269;53.330;-6.288;2023-01-30T06:21:06;102352.59;;;20.37
74750;BMP280;63269;53.330;-6.288;2023-01-30T06:23:33;102350.69;;;20.37
74750;BMP280;63269;53.330;-6.288;2023-01-30T06:25:59;102350.69;;;20.37
74750;BMP280;63269;53.330;-6.288;2023-01-30T06:28:25;102351.06;;;20.36
74750;BMP280;63269;53.330;-6.288;2023-01-30T06:30:51;102356.00;;;20.37
74750;BMP280;63269;53.330;-6.288;2023-01-30T06:33:17;102352.22;;;20.38
74750;BMP280;63269;53.330;-6.288;2023-01-30T06:35:43;102352.97;;;20.39
74750;BMP280;63269;53.330;-6.288;2023-01-30T06:38:09;102364.00;;;20.41
74750;BMP280;63269;53.330;-6.288;2023-01-30T06:40:40;102361.69;;;20.43
74750;BMP280;63269;53.330;-6.288;2023-01-30T06:43:06;102364.38;;;20.43
74750;BMP280;63269;53.330;-6.288;2023-01-30T06:45:31;102359.03;;;20.43
74750;BMP280;63269;53.330;-6.288;2023-01-30T06:47:57;102363.25;;;20.44
74750;BMP280;63269;53.330;-6.288;2023-01-30T06:50:24;102363.25;;;20.44
74750;BMP280;63269;53.330;-6.288;2023-01-30T06:52:51;102360.16;;;20.46
74750;BMP280;63269;53.330;-6.288;2023-01-30T06:55:20;102367.78;;;20.47
74750;BMP280;63269;53.330;-6.288;2023-01-30T06:57:46;102368.94;;;20.46
74750;BMP280;63269;53.330;-6.288;2023-01-30T07:00:14;102368.94;;;20.46
74750;BMP280;63269;53.330;-6.288;2023-01-30T07:02:41;102367.03;;;20.47
74750;BMP280;63269;53.330;-6.288;2023-01-30T07:05:07;102373.47;;;20.49
74750;BMP280;63269;53.330;-6.288;2023-01-30T07:07:33;102373.47;;;20.49
74750;BMP280;63269;53.330;-6.288;2023-01-30T07:09:58;102380.72;;;20.49
74750;BMP280;63269;53.330;-6.288;2023-01-30T07:12:25;102380.72;;;20.49
74750;BMP280;63269;53.330;-6.288;2023-01-30T07:14:51;102378.44;;;20.51
74750;BMP280;63269;53.330;-6.288;2023-01-30T07:17:17;102378.44;;;20.51
74750;BMP280;63269;53.330;-6.288;2023-01-30T07:19:43;102388.31;;;20.50
74750;BMP280;63269;53.330;-6.288;2023-01-30T07:22:08;102403.53;;;20.53
74750;BMP280;63269;53.330;-6.288;2023-01-30T07:24:34;102404.72;;;20.52
74750;BMP280;63269;53.330;-6.288;2023-01-30T07:26:59;102409.63;;;20.54
74750;BMP280;63269;53.330;-6.288;2023-01-30T07:29:24;102409.63;;;20.54
74750;BMP280;63269;53.330;-6.288;2023-01-30T07:31:50;102409.63;;;20.54
74750;BMP280;63269;53.330;-6.288;2023-01-30T07:34:16;102403.91;;;20.55
74750;BMP280;63269;53.330;-6.288;2023-01-30T07:36:41;102404.66;;;20.56
74750;BMP280;63269;53.330;-6.288;2023-01-30T07:39:07;102404.66;;;20.56
74750;BMP280;63269;53.330;-6.288;2023-01-30T07:41:34;102430.19;;;20.57
74750;BMP280;63269;53.330;-6.288;2023-01-30T07:43:59;102430.19;;;20.57
74750;BMP280;63269;53.330;-6.288;2023-01-30T07:46:25;102433.63;;;20.57
74750;BMP280;63269;53.330;-6.288;2023-01-30T07:48:50;102441.22;;;20.59
74750;BMP280;63269;53.330;-6.288;2023-01-30T07:51:15;102441.22;;;20.59
74750;BMP280;63269;53.330;-6.288;2023-01-30T07:53:41;102436.66;;;20.59
74750;BMP280;63269;53.330;-6.288;2023-01-30T07:56:07;102436.66;;;20.59
74750;BMP280;63269;53.330;-6.288;2023-01-30T07:58:33;102435.13;;;20.58
74750;BMP280;63269;53.330;-6.288;2023-01-30T08:00:58;102441.19;;;20.63
74750;BMP280;63269;53.330;-6.288;2023-01-30T08:03:24;102446.53;;;20.63
74750;BMP280;63269;53.330;-6.288;2023-01-30T08:05:49;102441.97;;;20.63
74750;BMP280;63269;53.330;-6.288;2023-01-30T08:08:15;102446.53;;;20.63
74750;BMP280;63269;53.330;-6.288;2023-01-30T08:10:41;102439.69;;;20.65
74750;BMP280;63269;53.330;-6.288;2023-01-30T08:13:06;102454.16;;;20.64
74750;BMP280;63269;53.330;-6.288;2023-01-30T08:15:31;102444.25;;;20.65
74750;BMP280;63269;53.330;-6.288;2023-01-30T08:17:58;102462.53;;;20.66
74750;BMP280;63269;53.330;-6.288;2023-01-30T08:20:25;102461.34;;;20.67
74750;BMP280;63269;53.330;-6.288;2023-01-30T08:22:52;102460.22;;;20.68
74750;BMP280;63269;53.330;-6.288;2023-01-30T08:25:18;102457.56;;;20.68
74750;BMP280;63269;53.330;-6.288;2023-01-30T08:27:43;102461.00;;;20.69
74750;BMP280;63269;53.330;-6.288;2023-01-30T08:30:10;102465.94;;;20.70
74750;BMP280;63269;53.330;-6.288;2023-01-30T08:32:35;102465.19;;;20.70
74750;BMP280;63269;53.330;-6.288;2023-01-30T08:35:01;102457.19;;;20.70
74750;BMP280;63269;53.330;-6.288;2023-01-30T08:37:26;102457.19;;;20.70
74750;BMP280;63269;53.330;-6.288;2023-01-30T08:39:52;102458.28;;;20.72
74750;BMP280;63269;53.330;-6.288;2023-01-30T08:42:17;102458.28;;;20.72
74750;BMP280;63269;53.330;-6.288;2023-01-30T08:44:43;102453.72;;;20.73
74750;BMP280;63269;53.330;-6.288;2023-01-30T08:47:08;102451.06;;;20.73
74750;BMP280;63269;53.330;-6.288;2023-01-30T08:49:34;102444.56;;;20.74
74750;BMP280;63269;53.330;-6.288;2023-01-30T08:51:59;102452.19;;;20.75
74750;BMP280;63269;53.330;-6.288;2023-01-30T08:54:24;102460.16;;;20.75
74750;BMP280;63269;53.330;-6.288;2023-01-30T08:56:50;102456.38;;;20.76
74750;BMP280;63269;53.330;-6.288;2023-01-30T08:59:15;102456.38;;;20.76
74750;BMP280;63269;53.330;-6.288;2023-01-30T09:01:41;102454.09;;;20.75
74750;BMP280;63269;53.330;-6.288;2023-01-30T09:04:06;102473.91;;;20.77
74750;BMP280;63269;53.330;-6.288;2023-01-30T09:06:31;102484.16;;;20.79
74750;BMP280;63269;53.330;-6.288;2023-01-30T09:08:58;102480.75;;;20.78
74750;BMP280;63269;53.330;-6.288;2023-01-30T09:11:23;102480.75;;;20.78
74750;BMP280;63269;53.330;-6.288;2023-01-30T09:13:48;102482.25;;;20.79
74750;BMP280;63269;53.330;-6.288;2023-01-30T09:16:14;102497.50;;;20.83
74750;BMP280;63269;53.330;-6.288;2023-01-30T09:18:41;102497.50;;;20.83
74750;BMP280;63269;53.330;-6.288;2023-01-30T09:21:07;102498.66;;;20.82
74750;BMP280;63269;53.330;-6.288;2023-01-30T09:23:33;102500.16;;;20.86
74750;BMP280;63269;53.330;-6.288;2023-01-30T09:25:59;102492.16;;;20.86
74750;BMP280;63269;53.330;-6.288;2023-01-30T09:28:25;102497.47;;;20.86
74750;BMP280;63269;53.330;-6.288;2023-01-30T09:30:50;102497.47;;;20.86
74750;BMP280;63269;53.330;-6.288;2023-01-30T09:33:16;102503.56;;;20.87
74750;BMP280;63269;53.330;-6.288;2023-01-30T09:35:47;102504.34;;;20.87
74750;BMP280;63269;53.330;-6.288;2023-01-30T09:38:13;102507.75;;;20.88
74750;BMP280;63269;53.330;-6.288;2023-01-30T09:49:34;102523.38;;;20.93
74750;BMP280;63269;53.330;-6.288;2023-01-30T09:54:44;102525.25;;;20.92
74750;BMP280;63269;53.330;-6.288;2023-01-30T09:57:18;102523.75;;;20.91
74750;BMP280;63269;53.330;-6.288;2023-01-30T10:02:36;102537.06;;;20.95
74750;BMP280;63269;53.330;-6.288;2023-01-30T10:05:04;102543.53;;;20.94
74750;BMP280;63269;53.330;-6.288;2023-01-30T10:23:52;102556.88;;;20.97
74750;BMP280;63269;53.330;-6.288;2023-01-30T10:26:23;102550.75;;;20.97
74750;BMP280;63269;53.330;-6.288;2023-01-30T10:31:22;102554.97;;;20.98
74750;BMP280;63269;53.330;-6.288;2023-01-30T10:34:00;102562.59;;;20.99
74750;BMP280;63269;53.330;-6.288;2023-01-30T10:39:27;102562.59;;;20.99
74750;BMP280;63269;53.330;-6.288;2023-01-30T10:42:06;102571.34;;;21.00
74750;BMP280;63269;53.330;-6.288;2023-01-30T10:44:32;102571.34;;;21.00
74750;BMP280;63269;53.330;-6.288;2023-01-30T10:47:09;102561.06;;;20.98
74750;BMP280;63269;53.330;-6.288;2023-01-30T10:54:53;102552.66;;;21.00
74750;BMP280;63269;53.330;-6.288;2023-01-30T11:00:02;102551.50;;;21.01
74750;BMP280;63269;53.330;-6.288;2023-01-30T11:02:49;102548.50;;;20.99
74750;BMP280;63269;53.330;-6.288;2023-01-30T11:05:20;102540.06;;;21.00
74750;BMP280;63269;53.330;-6.288;2023-01-30T11:07:47;102540.06;;;21.00
74750;BMP280;63269;53.330;-6.288;2023-01-30T11:10:21;102546.56;;;20.99
74750;BMP280;63269;53.330;-6.288;2023-01-30T11:12:52;102542.75;;;21.00
74750;BMP280;63269;53.330;-6.288;2023-01-30T11:15:20;102544.28;;;21.02
74750;BMP280;63269;53.330;-6.288;2023-01-30T11:17:49;102548.44;;;21.03
74750;BMP280;63269;53.330;-6.288;2023-01-30T11:20:18;102548.44;;;21.03
74750;BMP280;63269;53.330;-6.288;2023-01-30T11:22:46;102549.63;;;21.02
74750;BMP280;63269;53.330;-6.288;2023-01-30T11:25:20;102555.31;;;21.04
74750;BMP280;63269;53.330;-6.288;2023-01-30T11:28:00;102546.16;;;21.05
74750;BMP280;63269;53.330;-6.288;2023-01-30T11:30:28;102546.16;;;21.05
74750;BMP280;63269;53.330;-6.288;2023-01-30T11:33:11;102554.94;;;21.02
74750;BMP280;63269;53.330;-6.288;2023-01-30T11:38:32;102564.09;;;21.04
74750;BMP280;63269;53.330;-6.288;2023-01-30T11:43:32;102564.09;;;21.04
74750;BMP280;63269;53.330;-6.288;2023-01-30T11:45:58;102552.25;;;21.05
74750;BMP280;63269;53.330;-6.288;2023-01-30T11:48:30;102562.16;;;21.05
74750;BMP280;63269;53.330;-6.288;2023-01-30T11:51:05;102562.16;;;21.05
74750;BMP280;63269;53.330;-6.288;2023-01-30T11:56:14;102560.66;;;21.04
74750;BMP280;63269;53.330;-6.288;2023-01-30T11:58:41;102551.50;;;21.05
74750;BMP280;63269;53.330;-6.288;2023-01-30T12:01:10;102555.31;;;21.04
74750;BMP280;63269;53.330;-6.288;2023-01-30T12:03:56;102560.66;;;21.00
74750;BMP280;63269;53.330;-6.288;2023-01-30T12:06:34;102566.78;;;21.04
74750;BMP280;63269;53.330;-6.288;2023-01-30T12:09:00;102566.78;;;21.04
74750;BMP280;63269;53.330;-6.288;2023-01-30T12:13:54;102563.69;;;21.06
74750;BMP280;63269;53.330;-6.288;2023-01-30T12:21:57;102566.00;;;21.04
74750;BMP280;63269;53.330;-6.288;2023-01-30T12:24:33;102560.66;;;21.04
74750;BMP280;63269;53.330;-6.288;2023-01-30T12:27:04;102564.84;;;21.05
74750;BMP280;63269;53.330;-6.288;2023-01-30T12:29:36;102558.78;;;21.04
74750;BMP280;63269;53.330;-6.288;2023-01-30T12:34:30;102558.34;;;21.06
74750;BMP280;63269;53.330;-6.288;2023-01-30T12:59:01;102544.25;;;21.05
74750;BMP280;63269;53.330;-6.288;2023-01-30T13:12:45;102545.78;;;21.06
74750;BMP280;63269;53.330;-6.288;2023-01-30T13:15:34;102546.16;;;21.05
74750;BMP280;63269;53.330;-6.288;2023-01-30T13:18:14;102531.69;;;21.06
74750;BMP280;63269;53.330;-6.288;2023-01-30T13:23:43;102532.03;;;21.08
74750;BMP280;63269;53.330;-6.288;2023-01-30T13:26:16;102532.03;;;21.08
74750;BMP280;63269;53.330;-6.288;2023-01-30T13:28:48;102526.34;;;21.06
74750;BMP280;63269;53.330;-6.288;2023-01-30T13:31:17;102534.72;;;21.08
74750;BMP280;63269;53.330;-6.288;2023-01-30T13:33:47;102532.78;;;21.08
74750;BMP280;63269;53.330;-6.288;2023-01-30T13:36:26;102529.38;;;21.08
74750;BMP280;63269;53.330;-6.288;2023-01-30T13:39:01;102535.47;;;21.08
74750;BMP280;63269;53.330;-6.288;2023-01-30T13:41:40;102536.97;;;21.09
74750;BMP280;63269;53.330;-6.288;2023-01-30T13:44:30;102536.97;;;21.09
74750;BMP280;63269;53.330;-6.288;2023-01-30T13:47:18;102542.31;;;21.09
74750;BMP280;63269;53.330;-6.288;2023-01-30T13:52:41;102534.72;;;21.11
74750;BMP280;63269;53.330;-6.288;2023-01-30T13:59:06;102525.91;;;21.11
74750;BMP280;63269;53.330;-6.288;2023-01-30T14:01:11;102527.84;;;21.10
74750;BMP280;63269;53.330;-6.288;2023-01-30T14:03:37;102517.16;;;21.10
74750;BMP280;63269;53.330;-6.288;2023-01-30T14:08:52;102508.00;;;21.11
74750;BMP280;63269;53.330;-6.288;2023-01-30T14:11:24;102508.00;;;21.11
74750;BMP280;63269;53.330;-6.288;2023-01-30T14:14:00;102505.34;;;21.11
74750;BMP280;63269;53.330;-6.288;2023-01-30T14:16:47;102500.00;;;21.11
74750;BMP280;63269;53.330;-6.288;2023-01-30T14:22:04;102503.00;;;21.13
74750;BMP280;63269;53.330;-6.288;2023-01-30T14:24:41;102502.69;;;21.11
74750;BMP280;63269;53.330;-6.288;2023-01-30T14:27:22;102507.59;;;21.13
74750;BMP280;63269;53.330;-6.288;2023-01-30T14:35:13;102503.44;;;21.12
74750;BMP280;63269;53.330;-6.288;2023-01-30T14:50:48;102509.88;;;21.14
74750;BMP280;63269;53.330;-6.288;2023-01-30T14:53:13;102508.78;;;21.12
74750;BMP280;63269;53.330;-6.288;2023-01-30T14:55:39;102507.22;;;21.14
74750;BMP280;63269;53.330;-6.288;2023-01-30T14:58:14;102515.22;;;21.14
74750;BMP280;63269;53.330;-6.288;2023-01-30T15:00:42;102522.06;;;21.15
74750;BMP280;63269;53.330;-6.288;2023-01-30T15:03:16;102521.31;;;21.15
74750;BMP280;63269;53.330;-6.288;2023-01-30T15:05:43;102527.78;;;21.17
74750;BMP280;63269;53.330;-6.288;2023-01-30T15:08:22;102527.78;;;21.17
74750;BMP280;63269;53.330;-6.288;2023-01-30T15:11:05;102520.94;;;21.16
74750;BMP280;63269;53.330;-6.288;2023-01-30T15:22:01;102528.19;;;21.16
74750;BMP280;63269;53.330;-6.288;2023-01-30T15:27:13;102525.09;;;21.17
74750;BMP280;63269;53.330;-6.288;2023-01-30T15:32:20;102532.00;;;21.15
74750;BMP280;63269;53.330;-6.288;2023-01-30T15:35:00;102515.97;;;21.15
74750;BMP280;63269;53.330;-6.288;2023-01-30T15:42:36;102505.34;;;21.11
74750;BMP280;63269;53.330;-6.288;2023-01-30T15:50:32;102511.47;;;21.05
74750;BMP280;63269;53.330;-6.288;2023-01-30T15:52:58;102507.31;;;21.00
74750;BMP280;63269;53.330;-6.288;2023-01-30T15:55:35;102501.59;;;20.98
74750;BMP280;63269;53.330;-6.288;2023-01-30T15:58:16;102508.84;;;20.97
74750;BMP280;63269;53.330;-6.288;2023-01-30T16:00:47;102508.47;;;20.95
74750;BMP280;63269;53.330;-6.288;2023-01-30T16:03:17;102508.47;;;20.95
74750;BMP280;63269;53.330;-6.288;2023-01-30T16:05:54;102502.41;;;20.91
74750;BMP280;63269;53.330;-6.288;2023-01-30T16:08:24;102504.69;;;20.89
74750;BMP280;63269;53.330;-6.288;2023-01-30T16:10:51;102504.69;;;20.89
74750;BMP280;63269;53.330;-6.288;2023-01-30T16:13:20;102488.69;;;20.86
74750;BMP280;63269;53.330;-6.288;2023-01-30T16:16:02;102494.06;;;20.82
74750;BMP280;63269;53.330;-6.288;2023-01-30T16:18:50;102494.06;;;20.82
74750;BMP280;63269;53.330;-6.288;2023-01-30T16:21:23;102494.09;;;20.78
74750;BMP280;63269;53.330;-6.288;2023-01-30T16:26:41;102493.72;;;20.73
74750;BMP280;63269;53.330;-6.288;2023-01-30T16:29:13;102493.72;;;20.73
74750;BMP280;63269;53.330;-6.288;2023-01-30T16:31:39;102493.34;;;20.71
74750;BMP280;63269;53.330;-6.288;2023-01-30T16:34:37;102483.09;;;20.69
74750;BMP280;63269;53.330;-6.288;2023-01-30T16:37:22;102488.03;;;20.67
74750;BMP280;63269;53.330;-6.288;2023-01-30T16:42:28;102490.34;;;20.65
74750;BMP280;63269;53.330;-6.288;2023-01-30T16:47:32;102485.03;;;20.62
74750;BMP280;63269;53.330;-6.288;2023-01-30T16:49:58;102486.94;;;20.57
74750;BMP280;63269;53.330;-6.288;2023-01-30T16:52:35;102486.94;;;20.57
74750;BMP280;63269;53.330;-6.288;2023-01-30T16:55:16;102482.78;;;20.56
74750;BMP280;63269;53.330;-6.288;2023-01-30T16:57:58;102482.78;;;20.56
74750;BMP280;63269;53.330;-6.288;2023-01-30T17:00:31;102486.19;;;20.53
74750;BMP280;63269;53.330;-6.288;2023-01-30T17:03:00;102479.75;;;20.51